Hauptseite
METAR-TAF:

METAR-TAF

Flughäfen :

Cherbourg, Frankreich

Flughafen Cherbourg-Maupertus

Breite: 49-39N, Länge: 001-28W, Höhe: 138 m

Beobachtung

Neuester Wetterbericht von vor 23 Minuten, um 21:30 UTC
Wind 14 kt aus Ost
Temperatur 1°C
Luftfeuchtigkeit 64%
Luftdruck 1024 hPa
Sichtweite 10 km oder mehr

METAR: LFRC 252130Z AUTO 08014KT 9999 NSC 01/M05 Q1024

Zeit: 22:53 (21:53 UTC)

Prognose

Neuester Wetterbericht von vor 7 Stunden und 53 Minuten, um 14:00 UTC
Gültige Prognose vom 25 um 15 UTC bis 25 um 24 UTC
Wind 16 kt aus Ost, Böen bis zu 28 kt
Sichtweite 10 km oder mehr
keine Wolken unter 1500 m und keine Kumulonimbus oder Gewitterwolken

TAF: LFRC 251400Z 2515/2524 08016G28KT CAVOK

Wetterbeobachtungen und Prognosen von mehr als 4000 Flughäfen (METAR und TAF Bericht).

Die verfügbaren Stationen werden durch gelbe und rote Markierungen auf der Karte dargestellt.

Führen Sie die Maus auf sie, um den Namen der Station zu sehen.

Darauf klicken, um die Beobachtung von Wetterbeobachtungen und Prognosen zu sehen.

Um die Karte zu ändern : klicken Sie auf den grünen Tasten mit einem schwarzen Kreuz Zum Vergrößern, auf den grünen Button mit einem Gedankenstrich zu verkleinern, oder auf die grünen Pfeile für benachbarte Karten.


METAR-TAF: